Time;durP1;ratioP1;P1;durP2;ratioP2;P2;SDS_P1;SDS_P2;PMS_P1;PMS_P2;Temp;Humidity;BMP_temperature;BMP_pressure;BME280_temperature;BME280_humidity;BME280_pressure;Samples;Min_cycle;Max_cycle;Signal;HPM_P1;HPM_P2
2022/04/27 00:01:36;;;;;;;28.00;17.47;;;;;;;;;;7375998;19;20379;-77
2022/04/27 00:04:01;;;;;;;26.15;18.25;;;;;;;;;;7378591;19;20589;-75
2022/04/27 00:06:27;;;;;;;32.78;19.10;;;;;;;;;;7380537;19;20581;-81
2022/04/27 00:08:52;;;;;;;30.85;18.70;;;;;;;;;;7373489;19;20435;-76
2022/04/27 00:11:17;;;;;;;28.57;19.70;;;;;;;;;;7382343;19;19999;-77
2022/04/27 00:13:42;;;;;;;30.80;19.48;;;;;;;;;;7378538;19;20263;-76
2022/04/27 00:16:08;;;;;;;34.75;22.40;;;;;;;;;;7375439;19;20025;-77
2022/04/27 00:18:33;;;;;;;35.07;22.27;;;;;;;;;;7381118;19;20021;-75
2022/04/27 00:20:58;;;;;;;32.30;20.58;;;;;;;;;;7381563;19;20359;-76
2022/04/27 00:23:25;;;;;;;37.88;21.95;;;;;;;;;;7377985;19;20108;-75
2022/04/27 00:25:50;;;;;;;25.25;17.70;;;;;;;;;;7382769;19;20019;-77
2022/04/27 00:28:15;;;;;;;35.13;20.35;;;;;;;;;;7376083;19;20005;-79
2022/04/27 00:30:41;;;;;;;34.63;22.10;;;;;;;;;;7375999;19;20082;-79
2022/04/27 00:33:06;;;;;;;28.90;19.63;;;;;;;;;;7378090;19;20070;-77
2022/04/27 00:35:32;;;;;;;31.33;18.77;;;;;;;;;;7380323;19;20482;-75
2022/04/27 00:37:57;;;;;;;33.05;19.17;;;;;;;;;;7375410;19;20106;-75
2022/04/27 00:40:22;;;;;;;32.00;19.43;;;;;;;;;;7379886;19;20279;-77
2022/04/27 00:42:47;;;;;;;30.70;17.93;;;;;;;;;;7375960;19;20263;-78
2022/04/27 00:45:12;;;;;;;32.80;18.73;;;;;;;;;;7354769;19;20322;-75
2022/04/27 00:47:38;;;;;;;29.25;18.00;;;;;;;;;;7376033;19;19995;-74
2022/04/27 00:50:03;;;;;;;30.38;19.55;;;;;;;;;;7374387;19;20353;-80
2022/04/27 00:52:30;;;;;;;29.63;19.58;;;;;;;;;;7380320;19;20018;-79
2022/04/27 00:54:56;;;;;;;31.80;20.38;;;;;;;;;;7376858;19;20044;-75
2022/04/27 00:57:25;;;;;;;29.10;19.40;;;;;;;;;;7375827;19;20019;-77
2022/04/27 00:59:51;;;;;;;28.92;19.35;;;;;;;;;;7375234;19;20022;-75
2022/04/27 01:02:16;;;;;;;29.65;18.70;;;;;;;;;;7376004;19;20459;-78
2022/04/27 01:04:41;;;;;;;37.63;21.10;;;;;;;;;;7367702;19;20021;-78
2022/04/27 01:07:07;;;;;;;35.97;19.63;;;;;;;;;;7380414;19;20135;-75
2022/04/27 01:09:33;;;;;;;37.47;20.98;;;;;;;;;;7371114;19;20478;-75
2022/04/27 01:11:58;;;;;;;32.80;19.88;;;;;;;;;;7386656;19;20008;-76
2022/04/27 01:14:24;;;;;;;31.77;20.05;;;;;;;;;;7382623;19;20011;-76
2022/04/27 01:16:50;;;;;;;29.25;19.92;;;;;;;;;;7386690;19;20014;-75
2022/04/27 01:19:16;;;;;;;29.73;18.88;;;;;;;;;;7388073;19;20538;-75
2022/04/27 01:21:41;;;;;;;31.52;19.20;;;;;;;;;;7385236;19;20014;-76
2022/04/27 01:24:07;;;;;;;34.85;20.45;;;;;;;;;;7369427;19;20423;-78
2022/04/27 01:26:33;;;;;;;31.67;20.58;;;;;;;;;;7384466;19;20007;-75
2022/04/27 01:28:59;;;;;;;29.98;19.88;;;;;;;;;;7379789;19;20010;-76
2022/04/27 01:31:24;;;;;;;35.78;20.15;;;;;;;;;;7385348;19;20039;-75
2022/04/27 01:33:49;;;;;;;34.27;20.20;;;;;;;;;;7377649;19;20754;-75
2022/04/27 01:36:14;;;;;;;37.20;20.40;;;;;;;;;;7386346;19;20256;-77
2022/04/27 01:38:40;;;;;;;29.88;20.92;;;;;;;;;;7384575;19;20270;-75
2022/04/27 01:41:06;;;;;;;32.25;18.83;;;;;;;;;;7385986;19;20007;-75
2022/04/27 01:43:31;;;;;;;34.72;20.77;;;;;;;;;;7375264;19;19998;-81
2022/04/27 01:45:57;;;;;;;30.80;19.80;;;;;;;;;;7378732;19;20039;-75
2022/04/27 01:48:22;;;;;;;30.33;20.00;;;;;;;;;;7384369;19;20003;-80
2022/04/27 01:50:48;;;;;;;37.35;21.02;;;;;;;;;;7382248;19;20039;-78
2022/04/27 01:55:57;;;;;;;33.53;20.33;;;;;;;;;;7381860;19;20286;-77
2022/04/27 01:58:22;;;;;;;27.85;18.67;;;;;;;;;;7386622;19;20006;-80
2022/04/27 02:00:48;;;;;;;36.97;21.50;;;;;;;;;;7379746;19;20475;-77
2022/04/27 02:03:13;;;;;;;33.97;21.63;;;;;;;;;;7378025;19;19998;-75
2022/04/27 02:05:39;;;;;;;37.47;22.75;;;;;;;;;;7384263;19;20006;-81
2022/04/27 02:08:04;;;;;;;35.28;22.73;;;;;;;;;;7383300;19;20442;-77
2022/04/27 02:10:30;;;;;;;37.95;22.98;;;;;;;;;;7380658;19;20022;-76
2022/04/27 02:12:55;;;;;;;32.10;20.98;;;;;;;;;;7385444;19;20058;-75
2022/04/27 02:15:20;;;;;;;35.13;21.33;;;;;;;;;;7377535;19;20010;-77
2022/04/27 02:17:45;;;;;;;38.40;23.80;;;;;;;;;;7383247;19;20247;-76
2022/04/27 02:20:11;;;;;;;35.05;21.77;;;;;;;;;;7377134;19;20027;-77
2022/04/27 02:22:36;;;;;;;43.60;25.10;;;;;;;;;;7384501;19;20018;-76
2022/04/27 02:25:01;;;;;;;39.55;23.55;;;;;;;;;;7370776;19;20447;-76
2022/04/27 02:27:27;;;;;;;37.88;23.83;;;;;;;;;;7381575;19;20007;-74
2022/04/27 02:29:52;;;;;;;45.03;25.45;;;;;;;;;;7379560;19;20327;-76
2022/04/27 02:32:18;;;;;;;40.88;25.35;;;;;;;;;;7383922;19;20393;-75
2022/04/27 02:34:43;;;;;;;42.95;25.35;;;;;;;;;;7376666;19;20086;-78
2022/04/27 02:37:09;;;;;;;47.97;27.10;;;;;;;;;;7385806;19;20047;-78
2022/04/27 02:39:34;;;;;;;40.83;25.00;;;;;;;;;;7382176;19;20006;-78
2022/04/27 02:42:00;;;;;;;41.05;24.95;;;;;;;;;;7380187;19;20010;-75
2022/04/27 02:44:25;;;;;;;45.45;25.70;;;;;;;;;;7375314;19;20002;-74
2022/04/27 02:46:50;;;;;;;39.97;26.37;;;;;;;;;;7376789;19;20550;-77
2022/04/27 02:51:59;;;;;;;38.58;24.70;;;;;;;;;;7384777;19;20823;-75
2022/04/27 02:54:24;;;;;;;39.75;25.27;;;;;;;;;;7376769;19;20086;-76
2022/04/27 02:56:50;;;;;;;43.78;26.52;;;;;;;;;;7375964;19;20661;-74
2022/04/27 02:59:15;;;;;;;40.45;25.77;;;;;;;;;;7371581;19;20017;-75
2022/04/27 03:01:41;;;;;;;42.00;25.45;;;;;;;;;;7376151;19;20014;-79
2022/04/27 03:04:07;;;;;;;44.13;24.77;;;;;;;;;;7372694;19;20002;-81
2022/04/27 03:06:32;;;;;;;40.47;25.50;;;;;;;;;;7380922;19;20011;-75
2022/04/27 03:08:57;;;;;;;37.80;25.10;;;;;;;;;;7381693;19;20368;-80
2022/04/27 03:11:22;;;;;;;41.22;23.50;;;;;;;;;;7385260;19;19999;-74
2022/04/27 03:13:47;;;;;;;42.60;25.23;;;;;;;;;;7378186;19;20010;-75
2022/04/27 03:16:13;;;;;;;38.67;24.85;;;;;;;;;;7377503;19;20470;-76
2022/04/27 03:18:38;;;;;;;37.83;24.70;;;;;;;;;;7381644;19;20026;-74
2022/04/27 03:21:03;;;;;;;44.05;24.65;;;;;;;;;;7381572;19;20070;-75
2022/04/27 03:23:28;;;;;;;45.15;27.65;;;;;;;;;;7376576;19;20013;-77
2022/04/27 03:25:54;;;;;;;38.55;24.88;;;;;;;;;;7381892;19;19999;-77
2022/04/27 03:28:19;;;;;;;38.42;25.27;;;;;;;;;;7376563;19;20018;-74
2022/04/27 03:30:44;;;;;;;40.47;24.58;;;;;;;;;;7375934;19;20029;-75
2022/04/27 03:33:09;;;;;;;39.83;24.35;;;;;;;;;;7377891;19;20573;-74
2022/04/27 03:35:34;;;;;;;39.63;24.63;;;;;;;;;;7367031;19;20077;-76
2022/04/27 03:38:01;;;;;;;38.75;24.80;;;;;;;;;;7381644;19;20019;-77
2022/04/27 03:40:27;;;;;;;44.00;23.63;;;;;;;;;;7381328;19;20435;-75
2022/04/27 03:42:52;;;;;;;42.42;25.13;;;;;;;;;;7378080;19;20023;-75
2022/04/27 03:45:19;;;;;;;44.15;26.80;;;;;;;;;;7372825;19;20014;-77
2022/04/27 03:47:45;;;;;;;46.03;26.20;;;;;;;;;;7378959;19;19995;-78
2022/04/27 03:50:10;;;;;;;43.75;26.45;;;;;;;;;;7381303;19;20580;-75
2022/04/27 03:52:35;;;;;;;43.50;24.90;;;;;;;;;;7383228;19;20532;-79
2022/04/27 03:55:01;;;;;;;39.20;23.35;;;;;;;;;;7379720;19;20004;-75
2022/04/27 03:57:27;;;;;;;43.25;24.38;;;;;;;;;;7376093;19;20432;-74
2022/04/27 03:59:52;;;;;;;42.95;24.85;;;;;;;;;;7374293;19;20094;-74
2022/04/27 04:02:17;;;;;;;37.10;24.40;;;;;;;;;;7378263;19;20439;-78
2022/04/27 04:04:42;;;;;;;44.53;26.10;;;;;;;;;;7378800;19;20246;-76
2022/04/27 04:07:08;;;;;;;40.13;22.48;;;;;;;;;;7382257;19;20368;-77
2022/04/27 04:09:33;;;;;;;41.88;24.45;;;;;;;;;;7376864;19;20006;-74
2022/04/27 04:11:58;;;;;;;41.17;25.50;;;;;;;;;;7383955;19;20010;-74
2022/04/27 04:14:23;;;;;;;43.33;26.33;;;;;;;;;;7376370;19;20414;-74
2022/04/27 04:16:48;;;;;;;40.42;25.42;;;;;;;;;;7379768;19;20007;-75
2022/04/27 04:19:14;;;;;;;43.08;26.25;;;;;;;;;;7381862;19;20375;-77
2022/04/27 04:21:39;;;;;;;39.22;24.40;;;;;;;;;;7379682;19;20508;-75
2022/04/27 04:24:04;;;;;;;44.35;25.35;;;;;;;;;;7375787;19;20015;-77
2022/04/27 04:29:14;;;;;;;44.67;26.00;;;;;;;;;;7374661;19;20025;-78
2022/04/27 04:31:39;;;;;;;43.60;25.67;;;;;;;;;;7379413;19;20445;-77
2022/04/27 04:34:04;;;;;;;39.85;26.17;;;;;;;;;;7370357;19;20530;-78
2022/04/27 04:36:30;;;;;;;44.40;26.58;;;;;;;;;;7379302;19;20003;-75
2022/04/27 04:38:55;;;;;;;47.72;27.67;;;;;;;;;;7376771;19;20054;-77
2022/04/27 04:41:20;;;;;;;41.05;26.55;;;;;;;;;;7375412;19;20025;-75
2022/04/27 04:43:45;;;;;;;49.05;27.98;;;;;;;;;;7372067;19;20001;-80
2022/04/27 04:46:11;;;;;;;50.88;29.25;;;;;;;;;;7374397;19;20588;-79
2022/04/27 04:48:36;;;;;;;47.17;28.55;;;;;;;;;;7377298;19;20069;-77
2022/04/27 04:51:01;;;;;;;46.78;28.67;;;;;;;;;;7379106;19;20081;-77
2022/04/27 04:53:26;;;;;;;46.90;28.23;;;;;;;;;;7376698;19;20003;-77
2022/04/27 04:55:52;;;;;;;49.67;29.00;;;;;;;;;;7373216;19;20014;-79
2022/04/27 04:58:17;;;;;;;48.50;28.40;;;;;;;;;;7368247;19;20014;-75
2022/04/27 05:00:43;;;;;;;46.08;28.35;;;;;;;;;;7370874;19;20288;-74
2022/04/27 05:03:08;;;;;;;47.55;29.40;;;;;;;;;;7374226;19;20472;-75
2022/04/27 05:05:34;;;;;;;49.13;30.00;;;;;;;;;;7372618;19;20027;-80
2022/04/27 05:07:59;;;;;;;46.40;28.02;;;;;;;;;;7369893;19;20431;-75
2022/04/27 05:10:25;;;;;;;48.88;28.90;;;;;;;;;;7376982;19;20013;-77
2022/04/27 05:12:50;;;;;;;46.13;27.65;;;;;;;;;;7377356;19;20005;-78
2022/04/27 05:15:15;;;;;;;50.30;27.58;;;;;;;;;;7377982;19;20737;-77
2022/04/27 05:17:41;;;;;;;44.57;27.50;;;;;;;;;;7381542;19;20011;-77
2022/04/27 05:20:07;;;;;;;41.13;26.48;;;;;;;;;;7377934;19;20235;-77
2022/04/27 05:22:33;;;;;;;37.78;25.75;;;;;;;;;;7376859;19;20331;-78
2022/04/27 05:25:00;;;;;;;44.67;26.73;;;;;;;;;;7378022;19;20486;-77
2022/04/27 05:27:25;;;;;;;38.40;24.92;;;;;;;;;;7378660;19;20022;-82
2022/04/27 05:32:41;;;;;;;40.50;24.02;;;;;;;;;;7381183;19;20027;-75
2022/04/27 05:35:06;;;;;;;39.53;25.30;;;;;;;;;;7377742;19;20014;-76
2022/04/27 05:37:31;;;;;;;40.03;24.40;;;;;;;;;;7369436;19;20027;-78
2022/04/27 05:39:57;;;;;;;45.50;27.33;;;;;;;;;;7351565;19;20020;-79
2022/04/27 05:42:22;;;;;;;40.45;24.92;;;;;;;;;;7370558;19;20525;-77
2022/04/27 05:44:47;;;;;;;42.03;26.08;;;;;;;;;;7376367;19;19999;-78
2022/04/27 05:47:13;;;;;;;47.55;26.52;;;;;;;;;;7377616;19;20018;-78
2022/04/27 05:49:38;;;;;;;46.07;28.50;;;;;;;;;;7382504;19;20014;-77
2022/04/27 05:52:03;;;;;;;47.40;28.70;;;;;;;;;;7383876;19;20306;-76
2022/04/27 05:54:28;;;;;;;43.08;28.65;;;;;;;;;;7386365;19;20865;-76
2022/04/27 05:56:53;;;;;;;44.77;28.40;;;;;;;;;;7384584;19;20262;-78
2022/04/27 05:59:19;;;;;;;46.95;30.80;;;;;;;;;;7387577;19;20263;-76
2022/04/27 06:01:45;;;;;;;56.58;32.83;;;;;;;;;;7386162;19;20342;-79
2022/04/27 06:04:10;;;;;;;51.47;30.98;;;;;;;;;;7385668;19;20014;-77
2022/04/27 06:06:35;;;;;;;57.57;34.77;;;;;;;;;;7385795;19;20040;-76
2022/04/27 06:09:01;;;;;;;55.50;34.22;;;;;;;;;;7384492;19;20259;-78
2022/04/27 06:11:26;;;;;;;56.60;34.63;;;;;;;;;;7388896;19;20469;-78
2022/04/27 06:13:51;;;;;;;51.55;31.45;;;;;;;;;;7384835;19;20462;-78
2022/04/27 06:16:17;;;;;;;52.10;32.42;;;;;;;;;;7388087;19;20343;-80
2022/04/27 06:18:42;;;;;;;53.25;31.27;;;;;;;;;;7387185;19;20029;-78
2022/04/27 06:21:08;;;;;;;56.85;32.97;;;;;;;;;;7387910;19;19995;-78
2022/04/27 06:23:33;;;;;;;56.92;32.40;;;;;;;;;;7383189;19;20018;-77
2022/04/27 06:25:59;;;;;;;52.97;32.00;;;;;;;;;;7388257;19;20070;-79
2022/04/27 06:28:24;;;;;;;53.13;32.22;;;;;;;;;;7387204;19;20019;-81
2022/04/27 06:30:49;;;;;;;57.53;33.88;;;;;;;;;;7386734;19;20022;-78
2022/04/27 06:33:14;;;;;;;59.57;35.87;;;;;;;;;;7388266;19;20111;-78
2022/04/27 06:35:40;;;;;;;55.37;33.00;;;;;;;;;;7389114;19;20553;-77
2022/04/27 06:38:07;;;;;;;68.50;38.28;;;;;;;;;;7383834;19;20244;-77
2022/04/27 06:40:33;;;;;;;67.72;36.25;;;;;;;;;;7384249;19;20021;-77
2022/04/27 06:42:58;;;;;;;68.97;39.75;;;;;;;;;;7383372;19;20007;-77
2022/04/27 06:45:27;;;;;;;68.35;36.97;;;;;;;;;;7383992;19;20066;-76
2022/04/27 06:47:56;;;;;;;70.13;37.60;;;;;;;;;;7384960;19;20018;-80
2022/04/27 06:50:21;;;;;;;66.85;36.75;;;;;;;;;;7388084;19;20027;-77
2022/04/27 06:52:46;;;;;;;67.70;38.25;;;;;;;;;;7384547;19;20019;-77
2022/04/27 06:55:12;;;;;;;76.50;39.85;;;;;;;;;;7385526;19;20014;-78
2022/04/27 06:57:37;;;;;;;70.93;40.00;;;;;;;;;;7383049;19;20010;-75
2022/04/27 07:00:03;;;;;;;69.63;37.15;;;;;;;;;;7384317;19;20470;-76
2022/04/27 07:02:28;;;;;;;69.05;37.85;;;;;;;;;;7384466;19;20057;-76
2022/04/27 07:04:59;;;;;;;61.60;35.88;;;;;;;;;;7383969;19;20032;-77
2022/04/27 07:07:25;;;;;;;60.60;34.95;;;;;;;;;;7383150;19;20002;-78
2022/04/27 07:09:50;;;;;;;72.97;36.38;;;;;;;;;;7383014;19;20507;-77
2022/04/27 07:12:15;;;;;;;61.05;34.22;;;;;;;;;;7381963;19;20372;-77
2022/04/27 07:14:40;;;;;;;63.73;34.17;;;;;;;;;;7384365;19;20482;-78
2022/04/27 07:17:06;;;;;;;62.08;32.55;;;;;;;;;;7384108;19;20533;-76
2022/04/27 07:19:31;;;;;;;62.28;35.55;;;;;;;;;;7383748;19;20014;-80
2022/04/27 07:21:56;;;;;;;57.88;33.72;;;;;;;;;;7378993;19;20006;-76
2022/04/27 07:24:21;;;;;;;65.47;35.67;;;;;;;;;;7377209;19;20017;-78
2022/04/27 07:26:47;;;;;;;59.88;31.42;;;;;;;;;;7384389;19;20014;-78
2022/04/27 07:29:12;;;;;;;59.47;32.80;;;;;;;;;;7379382;19;20031;-80
2022/04/27 07:31:37;;;;;;;57.17;31.45;;;;;;;;;;7385222;19;20036;-76
2022/04/27 07:34:02;;;;;;;62.15;33.40;;;;;;;;;;7380448;19;20010;-78
2022/04/27 07:36:27;;;;;;;58.30;32.23;;;;;;;;;;7384468;19;20005;-78
2022/04/27 07:38:53;;;;;;;54.95;31.45;;;;;;;;;;7379459;19;20043;-77
2022/04/27 07:41:18;;;;;;;57.42;31.58;;;;;;;;;;7380971;19;20010;-78
2022/04/27 07:43:43;;;;;;;56.38;32.30;;;;;;;;;;7381123;19;20400;-76
2022/04/27 07:46:09;;;;;;;50.08;30.67;;;;;;;;;;7379982;19;20482;-75
2022/04/27 07:48:35;;;;;;;50.47;30.15;;;;;;;;;;7381902;19;20013;-78
2022/04/27 07:51:00;;;;;;;53.47;30.17;;;;;;;;;;7383594;19;20006;-77
2022/04/27 07:53:25;;;;;;;58.40;32.20;;;;;;;;;;7379235;19;20028;-79
2022/04/27 07:55:50;;;;;;;52.40;30.08;;;;;;;;;;7376628;19;20804;-81
2022/04/27 07:58:16;;;;;;;54.40;30.60;;;;;;;;;;7380660;19;20013;-76
2022/04/27 08:00:41;;;;;;;52.80;30.87;;;;;;;;;;7379619;19;20271;-79
2022/04/27 08:03:06;;;;;;;60.00;31.40;;;;;;;;;;7377701;19;20680;-77
2022/04/27 08:05:31;;;;;;;54.17;30.77;;;;;;;;;;7382837;19;20254;-77
2022/04/27 08:07:57;;;;;;;52.55;28.50;;;;;;;;;;7378658;19;20247;-79
2022/04/27 08:10:22;;;;;;;54.83;30.60;;;;;;;;;;7381637;19;20015;-80
2022/04/27 08:12:48;;;;;;;50.80;27.75;;;;;;;;;;7380258;19;20014;-77
2022/04/27 08:15:14;;;;;;;52.40;30.02;;;;;;;;;;7378810;19;20015;-78
2022/04/27 08:17:52;;;;;;;53.58;28.63;;;;;;;;;;7382831;19;19994;-77
2022/04/27 08:23:05;;;;;;;46.90;27.80;;;;;;;;;;7379328;19;20082;-76
2022/04/27 08:25:30;;;;;;;53.80;28.63;;;;;;;;;;7380103;19;20039;-76
2022/04/27 08:27:55;;;;;;;51.25;28.52;;;;;;;;;;7381385;19;20471;-77
2022/04/27 08:30:20;;;;;;;53.92;29.02;;;;;;;;;;7375481;19;19995;-77
2022/04/27 08:32:45;;;;;;;52.80;29.17;;;;;;;;;;7373703;19;20248;-76
2022/04/27 08:35:10;;;;;;;52.47;29.07;;;;;;;;;;7378431;19;20025;-76
2022/04/27 08:37:36;;;;;;;48.22;28.58;;;;;;;;;;7371622;19;20258;-78
2022/04/27 08:40:01;;;;;;;46.53;27.90;;;;;;;;;;7382119;19;20414;-77
2022/04/27 08:42:26;;;;;;;46.25;27.17;;;;;;;;;;7375075;19;20872;-78
2022/04/27 08:44:51;;;;;;;49.33;27.40;;;;;;;;;;7377385;19;20077;-77
2022/04/27 08:47:17;;;;;;;49.57;27.67;;;;;;;;;;7377101;19;20015;-80
2022/04/27 08:49:42;;;;;;;50.03;27.83;;;;;;;;;;7380915;19;20255;-78
2022/04/27 08:52:10;;;;;;;50.20;26.93;;;;;;;;;;7377105;19;20379;-77
2022/04/27 08:54:36;;;;;;;55.92;28.55;;;;;;;;;;7373567;19;20286;-77
2022/04/27 08:57:03;;;;;;;50.92;27.42;;;;;;;;;;7376544;19;19995;-78
2022/04/27 08:59:28;;;;;;;45.00;26.75;;;;;;;;;;7378520;19;20886;-77
2022/04/27 09:01:54;;;;;;;43.55;26.75;;;;;;;;;;7382667;19;19999;-78
2022/04/27 09:04:19;;;;;;;47.35;26.27;;;;;;;;;;7378916;19;20366;-79
2022/04/27 09:06:44;;;;;;;44.37;25.57;;;;;;;;;;7380250;19;20278;-77
2022/04/27 09:09:30;;;;;;;49.58;28.15;;;;;;;;;;7381640;19;20272;-78
2022/04/27 09:11:56;;;;;;;50.65;26.05;;;;;;;;;;7383290;19;20056;-78
2022/04/27 09:14:34;;;;;;;51.63;28.02;;;;;;;;;;7380985;19;20006;-79
2022/04/27 09:22:42;;;;;;;39.90;24.35;;;;;;;;;;7379838;19;20026;-77
2022/04/27 09:25:08;;;;;;;40.92;23.90;;;;;;;;;;7380653;19;20101;-77
2022/04/27 09:27:34;;;;;;;39.43;24.37;;;;;;;;;;7386237;19;20427;-77
2022/04/27 09:30:11;;;;;;;43.70;25.40;;;;;;;;;;7384387;19;20227;-77
2022/04/27 09:32:36;;;;;;;43.13;26.38;;;;;;;;;;7389678;19;20522;-77
2022/04/27 09:35:03;;;;;;;39.03;23.80;;;;;;;;;;7391033;19;20002;-77
2022/04/27 09:37:30;;;;;;;42.85;25.60;;;;;;;;;;7387067;19;20022;-78
2022/04/27 09:40:06;;;;;;;42.60;26.05;;;;;;;;;;7386128;19;20025;-77
2022/04/27 09:42:35;;;;;;;38.45;23.17;;;;;;;;;;7389891;19;20018;-79
2022/04/27 09:45:19;;;;;;;44.10;24.92;;;;;;;;;;7387203;19;20030;-77
2022/04/27 09:47:57;;;;;;;42.42;25.25;;;;;;;;;;7389018;19;20003;-78
2022/04/27 09:50:23;;;;;;;43.28;25.63;;;;;;;;;;7386468;19;20541;-79
2022/04/27 09:52:48;;;;;;;42.28;24.33;;;;;;;;;;7383101;19;20021;-77
2022/04/27 09:55:13;;;;;;;39.08;23.13;;;;;;;;;;7386723;19;20018;-78
2022/04/27 09:57:39;;;;;;;36.42;22.88;;;;;;;;;;7388741;19;20018;-78
2022/04/27 10:00:05;;;;;;;33.85;21.60;;;;;;;;;;7386846;19;20002;-77
2022/04/27 10:02:32;;;;;;;34.80;21.55;;;;;;;;;;7385863;19;20006;-77
2022/04/27 10:05:01;;;;;;;34.28;21.60;;;;;;;;;;7389213;19;20025;-77
2022/04/27 10:07:27;;;;;;;31.83;20.33;;;;;;;;;;7386918;19;20011;-78
2022/04/27 10:09:54;;;;;;;35.05;20.83;;;;;;;;;;7388328;19;20570;-78
2022/04/27 10:12:19;;;;;;;35.25;21.90;;;;;;;;;;7389246;19;20011;-77
2022/04/27 10:14:44;;;;;;;33.05;22.08;;;;;;;;;;7383596;19;20002;-78
2022/04/27 10:17:13;;;;;;;31.23;19.48;;;;;;;;;;7388484;19;20088;-78
2022/04/27 10:19:48;;;;;;;30.23;19.58;;;;;;;;;;7386910;19;20032;-79
2022/04/27 10:22:33;;;;;;;29.98;19.67;;;;;;;;;;7386441;19;20020;-78
2022/04/27 10:25:04;;;;;;;32.20;21.73;;;;;;;;;;7386662;19;20006;-78
2022/04/27 10:27:32;;;;;;;33.47;20.67;;;;;;;;;;7384221;19;20078;-77
2022/04/27 10:30:01;;;;;;;33.97;20.67;;;;;;;;;;7385798;19;20031;-78
2022/04/27 10:32:42;;;;;;;30.70;18.92;;;;;;;;;;7388114;19;20007;-77
2022/04/27 10:35:19;;;;;;;26.63;17.27;;;;;;;;;;7387965;19;20062;-77
2022/04/27 10:37:46;;;;;;;24.55;15.95;;;;;;;;;;7380887;19;20003;-77
2022/04/27 10:40:29;;;;;;;26.02;17.25;;;;;;;;;;7387325;19;20002;-77
2022/04/27 10:42:54;;;;;;;27.63;16.42;;;;;;;;;;7386139;19;20010;-77
2022/04/27 10:45:23;;;;;;;31.47;16.87;;;;;;;;;;7385327;19;20035;-77
2022/04/27 10:47:48;;;;;;;24.92;15.50;;;;;;;;;;7380053;19;20022;-77
2022/04/27 10:50:14;;;;;;;27.35;17.88;;;;;;;;;;7387761;19;20328;-77
2022/04/27 10:52:42;;;;;;;25.35;17.80;;;;;;;;;;7387098;19;20002;-77
2022/04/27 10:55:28;;;;;;;26.83;15.85;;;;;;;;;;7369781;19;20015;-78
2022/04/27 10:58:10;;;;;;;29.42;17.13;;;;;;;;;;7370859;19;20014;-77
2022/04/27 11:00:35;;;;;;;30.95;18.45;;;;;;;;;;7382771;19;19999;-78
2022/04/27 11:03:15;;;;;;;24.05;16.05;;;;;;;;;;7377009;19;20112;-79
2022/04/27 11:05:40;;;;;;;27.05;17.25;;;;;;;;;;7374811;19;20500;-77
2022/04/27 11:08:24;;;;;;;26.27;17.02;;;;;;;;;;7379166;19;20002;-78
2022/04/27 11:10:51;;;;;;;28.88;16.88;;;;;;;;;;7384755;19;20011;-77
2022/04/27 11:13:16;;;;;;;24.77;15.65;;;;;;;;;;7386645;19;20006;-78
2022/04/27 11:15:42;;;;;;;28.15;16.98;;;;;;;;;;7383549;19;20014;-77
2022/04/27 11:18:07;;;;;;;24.23;15.90;;;;;;;;;;7383921;19;20055;-77
2022/04/27 11:20:37;;;;;;;27.95;17.10;;;;;;;;;;7385337;19;20262;-77
2022/04/27 11:23:07;;;;;;;27.30;16.15;;;;;;;;;;7383845;19;20021;-77
2022/04/27 11:25:33;;;;;;;24.48;15.38;;;;;;;;;;7387125;19;19999;-78
2022/04/27 11:28:02;;;;;;;30.23;17.10;;;;;;;;;;7383798;19;20018;-78
2022/04/27 11:30:28;;;;;;;23.80;15.35;;;;;;;;;;7380003;19;20011;-78
2022/04/27 11:32:54;;;;;;;25.45;15.27;;;;;;;;;;7370787;19;20026;-78
2022/04/27 11:35:22;;;;;;;23.38;14.95;;;;;;;;;;7371355;19;20018;-77
2022/04/27 11:37:48;;;;;;;25.45;17.17;;;;;;;;;;7376885;19;20018;-78
2022/04/27 11:40:14;;;;;;;24.67;16.15;;;;;;;;;;7377578;19;20014;-77
2022/04/27 11:42:46;;;;;;;26.75;16.10;;;;;;;;;;7378275;19;20326;-78
2022/04/27 11:45:13;;;;;;;25.13;16.42;;;;;;;;;;7380435;19;20006;-78
2022/04/27 11:47:38;;;;;;;29.42;16.40;;;;;;;;;;7360335;19;20789;-77
2022/04/27 11:50:04;;;;;;;22.83;14.93;;;;;;;;;;7374651;19;19994;-79
2022/04/27 11:52:36;;;;;;;27.67;16.52;;;;;;;;;;7375506;19;20018;-78
2022/04/27 11:55:08;;;;;;;25.25;15.38;;;;;;;;;;7381414;19;20078;-79
2022/04/27 11:57:33;;;;;;;23.73;15.73;;;;;;;;;;7375698;19;20439;-79
2022/04/27 11:59:59;;;;;;;25.87;16.13;;;;;;;;;;7379726;19;20039;-79
2022/04/27 12:02:26;;;;;;;23.23;15.17;;;;;;;;;;7376838;19;20271;-79
2022/04/27 12:04:51;;;;;;;23.50;14.45;;;;;;;;;;7383534;19;20040;-79
2022/04/27 12:07:17;;;;;;;24.92;14.98;;;;;;;;;;7382259;19;20002;-79
2022/04/27 12:10:15;;;;;;;23.13;14.27;;;;;;;;;;7374314;19;20023;-79
2022/04/27 12:12:40;;;;;;;22.48;14.40;;;;;;;;;;7375376;19;20070;-79
2022/04/27 12:15:11;;;;;;;20.80;13.43;;;;;;;;;;7381877;19;20121;-79
2022/04/27 12:17:45;;;;;;;19.58;13.38;;;;;;;;;;7373124;19;20505;-79
2022/04/27 12:20:22;;;;;;;18.85;13.05;;;;;;;;;;7384155;19;20342;-79
2022/04/27 12:22:55;;;;;;;19.77;13.65;;;;;;;;;;7382705;19;20418;-80
2022/04/27 12:25:21;;;;;;;19.73;13.27;;;;;;;;;;7376001;19;20062;-79
2022/04/27 12:27:47;;;;;;;21.13;13.43;;;;;;;;;;7382092;19;20010;-79
2022/04/27 12:30:17;;;;;;;22.45;13.85;;;;;;;;;;7368329;19;20467;-80
2022/04/27 12:32:43;;;;;;;20.77;13.95;;;;;;;;;;7382010;19;20073;-80
2022/04/27 12:37:53;;;;;;;20.27;13.93;;;;;;;;;;7383020;19;20023;-79
2022/04/27 12:40:18;;;;;;;21.40;13.32;;;;;;;;;;7369261;19;20006;-79
2022/04/27 12:43:02;;;;;;;17.65;12.40;;;;;;;;;;7380871;19;20369;-78
2022/04/27 12:45:28;;;;;;;16.42;12.07;;;;;;;;;;7379995;19;20015;-78
2022/04/27 12:47:53;;;;;;;19.50;12.43;;;;;;;;;;7374551;19;20015;-79
2022/04/27 12:50:19;;;;;;;19.55;12.13;;;;;;;;;;7376199;19;20422;-79
2022/04/27 12:52:45;;;;;;;21.95;14.13;;;;;;;;;;7377459;19;20022;-79
2022/04/27 12:55:14;;;;;;;18.98;12.88;;;;;;;;;;7383193;19;20006;-79
2022/04/27 12:57:45;;;;;;;24.48;13.18;;;;;;;;;;7378681;19;20036;-79
2022/04/27 13:00:11;;;;;;;17.83;12.75;;;;;;;;;;7380601;19;20021;-79
2022/04/27 13:02:37;;;;;;;19.75;12.68;;;;;;;;;;7372766;19;20399;-78
2022/04/27 13:05:02;;;;;;;18.80;12.93;;;;;;;;;;7381601;19;20007;-79
2022/04/27 13:07:28;;;;;;;21.52;13.65;;;;;;;;;;7374484;19;20120;-79
2022/04/27 13:12:37;;;;;;;;;;;;;;;;;;7392197;19;20005;-79
2022/04/27 13:15:03;;;;;;;21.00;12.52;;;;;;;;;;7381789;19;19931;-79
2022/04/27 13:17:28;;;;;;;20.00;12.18;;;;;;;;;;7382903;19;20014;-79
2022/04/27 13:19:54;;;;;;;18.95;11.00;;;;;;;;;;7385220;19;20002;-80
2022/04/27 13:22:19;;;;;;;18.70;11.13;;;;;;;;;;7381770;19;20451;-80
2022/04/27 13:24:45;;;;;;;16.10;11.18;;;;;;;;;;7375685;19;20636;-80
2022/04/27 13:27:10;;;;;;;20.08;10.73;;;;;;;;;;7381237;19;20085;-80
2022/04/27 13:29:35;;;;;;;19.92;12.15;;;;;;;;;;7380003;19;20018;-79
2022/04/27 13:32:00;;;;;;;20.60;12.43;;;;;;;;;;7386697;19;20082;-80
2022/04/27 13:34:25;;;;;;;19.75;11.88;;;;;;;;;;7381069;19;20011;-80
2022/04/27 13:36:51;;;;;;;18.97;12.03;;;;;;;;;;7374323;19;20018;-79
2022/04/27 13:39:17;;;;;;;18.00;10.93;;;;;;;;;;7374720;19;20234;-79
2022/04/27 13:41:42;;;;;;;21.35;12.57;;;;;;;;;;7383123;19;20264;-79
2022/04/27 13:44:08;;;;;;;15.73;11.32;;;;;;;;;;7371850;19;20028;-79
2022/04/27 13:46:33;;;;;;;19.17;11.20;;;;;;;;;;7383597;19;20062;-79
2022/04/27 13:48:58;;;;;;;19.75;10.10;;;;;;;;;;7385129;19;20271;-79
2022/04/27 13:51:24;;;;;;;16.10;9.63;;;;;;;;;;7387276;19;20491;-79
2022/04/27 13:53:49;;;;;;;18.80;9.93;;;;;;;;;;7383601;19;20051;-79
2022/04/27 13:56:14;;;;;;;13.88;9.10;;;;;;;;;;7387967;19;20702;-79
2022/04/27 13:58:39;;;;;;;14.23;9.53;;;;;;;;;;7378598;19;20078;-79
2022/04/27 14:01:05;;;;;;;18.48;10.85;;;;;;;;;;7387907;19;20496;-79
2022/04/27 14:03:30;;;;;;;17.90;9.48;;;;;;;;;;7381646;19;20010;-79
2022/04/27 14:05:55;;;;;;;18.00;10.97;;;;;;;;;;7383269;19;20014;-79
2022/04/27 14:08:20;;;;;;;18.20;10.90;;;;;;;;;;7376573;19;20478;-79
2022/04/27 14:10:47;;;;;;;16.93;10.83;;;;;;;;;;7379214;19;20007;-79
2022/04/27 14:13:16;;;;;;;16.30;10.57;;;;;;;;;;7384507;19;20375;-80
2022/04/27 14:18:09;;;;;;;15.77;10.27;;;;;;;;;;7379989;19;20497;-79
2022/04/27 14:18:26;;;;;;;17.88;11.48;;;;;;;;;;7375657;19;20015;-79
2022/04/27 14:20:52;;;;;;;19.63;11.93;;;;;;;;;;7382444;19;19995;-79
2022/04/27 14:23:17;;;;;;;18.37;12.20;;;;;;;;;;7375814;19;20014;-80
2022/04/27 14:25:43;;;;;;;16.10;9.95;;;;;;;;;;7379054;19;20017;-79
2022/04/27 14:28:12;;;;;;;20.30;9.88;;;;;;;;;;7386201;19;20005;-79
2022/04/27 14:30:37;;;;;;;17.63;10.23;;;;;;;;;;7379562;19;20015;-79
2022/04/27 14:33:03;;;;;;;13.35;9.57;;;;;;;;;;7384167;19;20010;-77
2022/04/27 14:35:29;;;;;;;18.23;9.85;;;;;;;;;;7383378;19;20495;-79
2022/04/27 14:37:54;;;;;;;16.55;9.88;;;;;;;;;;7384019;19;20023;-78
2022/04/27 14:40:19;;;;;;;17.20;9.73;;;;;;;;;;7385901;19;20010;-79